createdAt,value
2022-08-14T00:01:54.970Z,10.93
2022-08-14T00:04:34.645Z,9.88
2022-08-14T00:07:06.169Z,11.35
2022-08-14T00:09:39.667Z,10.90
2022-08-14T00:12:23.408Z,10.93
2022-08-14T00:14:54.906Z,11.05
2022-08-14T00:17:23.500Z,12.00
2022-08-14T00:19:51.722Z,11.75
2022-08-14T00:22:44.239Z,12.50
2022-08-14T00:25:08.451Z,11.65
2022-08-14T00:27:37.668Z,11.60
2022-08-14T00:30:11.135Z,11.65
2022-08-14T00:32:52.008Z,11.35
2022-08-14T00:35:35.746Z,11.73
2022-08-14T00:38:12.230Z,12.35
2022-08-14T00:40:40.863Z,12.88
2022-08-14T00:43:13.692Z,11.93
2022-08-14T00:45:43.312Z,12.57
2022-08-14T00:48:34.695Z,11.93
2022-08-14T00:51:06.330Z,12.02
2022-08-14T00:53:33.960Z,11.95
2022-08-14T00:56:01.790Z,11.52
2022-08-14T00:58:35.474Z,13.23
2022-08-14T01:01:13.048Z,12.75
2022-08-14T01:03:42.174Z,13.13
2022-08-14T01:06:11.614Z,12.88
2022-08-14T01:08:52.170Z,12.45
2022-08-14T01:13:56.052Z,12.10
2022-08-14T01:16:31.651Z,12.73
2022-08-14T01:19:19.876Z,12.98
2022-08-14T01:21:52.884Z,12.95
2022-08-14T01:24:28.964Z,12.85
2022-08-14T01:27:02.090Z,11.65
2022-08-14T01:29:59.329Z,12.80
2022-08-14T01:32:22.907Z,12.93
2022-08-14T01:35:20.560Z,12.52
2022-08-14T01:37:56.284Z,15.80
2022-08-14T01:40:33.245Z,13.73
2022-08-14T01:43:14.845Z,13.15
2022-08-14T01:45:42.640Z,12.32
2022-08-14T01:48:20.798Z,13.80
2022-08-14T01:50:48.649Z,13.77
2022-08-14T01:53:17.994Z,11.93
2022-08-14T01:55:45.654Z,11.38
2022-08-14T01:58:19.764Z,11.93
2022-08-14T02:00:55.684Z,12.15
2022-08-14T02:03:29.580Z,11.93
2022-08-14T02:06:04.242Z,11.30
2022-08-14T02:08:52.561Z,12.43
2022-08-14T02:11:22.894Z,13.30
2022-08-14T02:13:56.989Z,12.90
2022-08-14T02:18:58.485Z,11.68
2022-08-14T02:21:27.284Z,11.82
2022-08-14T02:23:57.041Z,11.68
2022-08-14T02:26:58.624Z,10.48
2022-08-14T02:29:59.061Z,9.65
2022-08-14T02:32:30.354Z,10.65
2022-08-14T02:35:07.187Z,10.57
2022-08-14T02:37:47.810Z,11.20
2022-08-14T02:40:16.649Z,10.68
2022-08-14T02:42:55.040Z,10.27
2022-08-14T02:45:32.838Z,9.95
2022-08-14T02:48:10.206Z,10.70
2022-08-14T02:50:54.856Z,10.50
2022-08-14T02:53:22.866Z,11.82
2022-08-14T02:55:50.623Z,11.18
2022-08-14T02:58:30.909Z,11.40
2022-08-14T03:00:59.067Z,11.02
2022-08-14T03:03:26.974Z,11.65
2022-08-14T03:05:55.580Z,11.02
2022-08-14T03:08:23.910Z,11.30
2022-08-14T03:10:53.079Z,11.20
2022-08-14T03:13:25.249Z,11.32
2022-08-14T03:15:56.141Z,13.05
2022-08-14T03:18:30.566Z,13.02
2022-08-14T03:21:00.853Z,13.40
2022-08-14T03:23:28.460Z,13.88
2022-08-14T03:25:56.312Z,13.38
2022-08-14T03:28:29.606Z,14.55
2022-08-14T03:31:01.891Z,14.05
2022-08-14T03:33:37.886Z,12.85
2022-08-14T03:37:38.011Z,12.82
2022-08-14T03:39:16.003Z,13.18
2022-08-14T03:41:55.372Z,13.23
2022-08-14T03:45:19.079Z,14.48
2022-08-14T03:47:15.502Z,14.43
2022-08-14T03:49:44.293Z,14.45
2022-08-14T03:52:28.203Z,15.23
2022-08-14T03:55:03.961Z,15.35
2022-08-14T03:57:37.323Z,15.05
2022-08-14T04:00:13.502Z,14.50
2022-08-14T04:02:47.199Z,16.65
2022-08-14T04:05:16.499Z,14.88
2022-08-14T04:07:50.034Z,16.77
2022-08-14T04:10:32.039Z,14.88
2022-08-14T04:13:03.475Z,14.65
2022-08-14T04:15:31.764Z,15.35
2022-08-14T04:18:03.321Z,15.45
2022-08-14T04:20:31.646Z,15.73
2022-08-14T04:22:58.954Z,15.82
2022-08-14T04:25:29.104Z,16.58
2022-08-14T04:28:02.406Z,15.02
2022-08-14T04:30:32.664Z,15.32
2022-08-14T04:33:06.415Z,15.40
2022-08-14T04:35:55.634Z,15.98
2022-08-14T04:38:43.176Z,15.43
2022-08-14T04:41:33.420Z,15.45
2022-08-14T04:44:00.727Z,15.85
2022-08-14T04:46:56.044Z,15.30
2022-08-14T04:49:16.414Z,16.10
2022-08-14T04:51:46.871Z,14.52
2022-08-14T04:54:26.931Z,15.05
2022-08-14T04:56:56.284Z,15.80
2022-08-14T04:59:24.863Z,15.30
2022-08-14T05:01:57.224Z,15.00
2022-08-14T05:04:25.228Z,15.90
2022-08-14T05:06:55.024Z,15.32
2022-08-14T05:09:24.079Z,15.75
2022-08-14T05:11:51.848Z,16.08
2022-08-14T05:14:46.372Z,14.90
2022-08-14T05:17:10.931Z,14.90
2022-08-14T05:19:44.374Z,14.45
2022-08-14T05:22:26.923Z,15.48
2022-08-14T05:24:54.630Z,14.95
2022-08-14T05:27:23.969Z,14.27
2022-08-14T05:29:53.341Z,14.88
2022-08-14T05:32:20.984Z,14.45
2022-08-14T05:34:48.473Z,15.45
2022-08-14T05:37:15.826Z,15.80
2022-08-14T05:39:43.964Z,14.20
2022-08-14T05:42:21.963Z,14.48
2022-08-14T05:44:55.433Z,15.38
2022-08-14T05:47:28.728Z,14.63
2022-08-14T05:50:02.134Z,16.45
2022-08-14T05:52:39.390Z,14.77
2022-08-14T05:55:11.452Z,13.25
2022-08-14T05:57:54.459Z,13.00
2022-08-14T06:00:28.431Z,13.68
2022-08-14T06:02:58.413Z,15.90
2022-08-14T06:05:28.559Z,13.73
2022-08-14T06:07:57.411Z,17.55
2022-08-14T06:10:25.339Z,12.77
2022-08-14T06:12:57.287Z,12.85
2022-08-14T06:15:30.115Z,12.38
2022-08-14T06:17:59.621Z,11.52
2022-08-14T06:20:28.522Z,11.63
2022-08-14T06:22:57.492Z,11.63
2022-08-14T06:25:26.555Z,11.48
2022-08-14T06:27:55.075Z,11.80
2022-08-14T06:30:24.253Z,10.90
2022-08-14T06:33:09.319Z,11.20
2022-08-14T06:35:36.689Z,11.38
2022-08-14T06:38:04.438Z,10.73
2022-08-14T06:40:34.434Z,11.15
2022-08-14T06:43:09.509Z,10.52
2022-08-14T06:45:37.599Z,10.02
2022-08-14T06:48:12.722Z,10.20
2022-08-14T06:50:40.416Z,9.93
2022-08-14T06:53:10.468Z,9.77
2022-08-14T06:55:40.712Z,11.40
2022-08-14T06:58:29.418Z,10.77
2022-08-14T07:01:26.801Z,10.02
2022-08-14T07:04:22.611Z,9.98
2022-08-14T07:06:52.307Z,10.55
2022-08-14T07:09:23.478Z,10.85
2022-08-14T07:11:51.876Z,10.80
2022-08-14T07:14:19.401Z,10.65
2022-08-14T07:16:48.022Z,10.35
2022-08-14T07:19:17.961Z,10.18
2022-08-14T07:21:48.542Z,10.27
2022-08-14T07:24:21.848Z,9.10
2022-08-14T07:26:53.472Z,10.50
2022-08-14T07:29:25.988Z,10.80
2022-08-14T07:31:53.854Z,10.38
2022-08-14T07:34:36.050Z,10.77
2022-08-14T07:37:10.605Z,10.70
2022-08-14T07:39:45.752Z,10.80
2022-08-14T07:42:26.611Z,10.10
2022-08-14T07:45:05.278Z,11.63
2022-08-14T07:47:40.940Z,13.23
2022-08-14T07:50:51.800Z,9.77
2022-08-14T07:59:42.439Z,10.60
2022-08-14T08:02:20.629Z,9.00
2022-08-14T08:05:01.022Z,10.32
2022-08-14T08:07:39.179Z,10.75
2022-08-14T08:10:57.277Z,10.60
2022-08-14T08:16:19.223Z,10.50
2022-08-14T08:19:01.740Z,10.40
2022-08-14T08:21:39.989Z,10.23
2022-08-14T08:24:26.482Z,10.73
2022-08-14T08:27:01.158Z,11.10
2022-08-14T08:29:50.747Z,10.50
2022-08-14T08:32:29.863Z,10.32
2022-08-14T08:35:06.822Z,10.20
2022-08-14T08:41:26.234Z,10.50
2022-08-14T08:44:17.306Z,10.43
2022-08-14T08:47:12.358Z,9.25
2022-08-14T08:49:59.982Z,9.52
2022-08-14T08:52:34.115Z,9.98
2022-08-14T08:55:10.810Z,9.13
2022-08-14T08:57:48.874Z,9.55
2022-08-14T09:00:27.116Z,9.32
2022-08-14T09:03:02.686Z,9.57
2022-08-14T09:05:39.153Z,9.50
2022-08-14T09:08:30.141Z,10.32
2022-08-14T09:11:19.362Z,10.10
2022-08-14T09:13:57.170Z,8.63
2022-08-14T09:16:35.451Z,8.95
2022-08-14T09:19:11.057Z,9.43
2022-08-14T09:21:45.699Z,8.50
2022-08-14T09:24:28.974Z,8.48
2022-08-14T09:27:08.587Z,8.20
2022-08-14T09:30:01.340Z,7.97
2022-08-14T09:32:58.924Z,7.72
2022-08-14T09:35:55.064Z,7.95
2022-08-14T09:38:55.027Z,8.93
2022-08-14T09:41:36.813Z,8.50
2022-08-14T09:44:38.224Z,8.23
2022-08-14T09:47:17.774Z,7.75
2022-08-14T09:49:55.843Z,7.80
2022-08-14T09:52:34.229Z,8.35
2022-08-14T09:55:10.661Z,8.20
2022-08-14T09:57:47.484Z,8.38
2022-08-14T10:00:29.374Z,9.00
2022-08-14T10:03:06.920Z,8.95
2022-08-14T10:05:39.035Z,8.40
2022-08-14T10:08:29.786Z,7.80
2022-08-14T10:11:03.406Z,7.68
2022-08-14T10:13:52.972Z,8.13
2022-08-14T10:16:33.859Z,9.55
2022-08-14T10:19:13.352Z,9.45
2022-08-14T10:23:10.916Z,8.40
2022-08-14T10:24:50.974Z,7.70
2022-08-14T10:27:26.620Z,8.93
2022-08-14T10:30:03.033Z,6.82
2022-08-14T10:32:51.270Z,7.78
2022-08-14T10:35:35.100Z,7.68
2022-08-14T10:38:16.943Z,7.28
2022-08-14T10:40:59.196Z,7.25
2022-08-14T10:43:33.689Z,6.82
2022-08-14T10:47:37.181Z,7.18
2022-08-14T10:49:16.756Z,6.55
2022-08-14T10:52:05.761Z,7.03
2022-08-14T10:54:42.040Z,6.30
2022-08-14T10:57:31.212Z,7.65
2022-08-14T11:00:13.573Z,7.65
2022-08-14T11:03:05.242Z,6.97
2022-08-14T11:05:49.639Z,7.40
2022-08-14T11:08:51.673Z,7.93
2022-08-14T11:11:37.223Z,8.77
2022-08-14T11:14:36.734Z,8.35
2022-08-14T11:17:12.707Z,9.43
2022-08-14T11:19:53.903Z,7.30
2022-08-14T11:23:03.469Z,7.35
2022-08-14T11:25:43.598Z,6.55
2022-08-14T11:28:21.572Z,7.13
2022-08-14T11:31:20.789Z,7.53
2022-08-14T11:34:29.942Z,7.57
2022-08-14T11:37:03.795Z,8.75
2022-08-14T11:39:51.276Z,7.97
2022-08-14T11:42:56.758Z,7.32
2022-08-14T11:49:03.575Z,7.13
2022-08-14T11:51:54.084Z,7.55
2022-08-14T11:54:35.366Z,7.60
2022-08-14T11:57:22.758Z,7.40
2022-08-14T12:00:19.744Z,7.32
2022-08-14T12:03:11.988Z,8.68
2022-08-14T12:05:48.728Z,7.50
2022-08-14T12:08:24.435Z,7.50
2022-08-14T12:11:02.519Z,7.05
2022-08-14T12:13:44.267Z,7.20
2022-08-14T12:16:26.968Z,7.05
2022-08-14T12:19:03.327Z,7.78
2022-08-14T12:21:47.848Z,7.22
2022-08-14T12:24:35.704Z,7.15
2022-08-14T12:27:13.613Z,7.47
2022-08-14T12:30:01.534Z,13.18
2022-08-14T12:35:08.877Z,7.10
2022-08-14T12:37:46.192Z,7.30
2022-08-14T12:40:20.988Z,7.47
2022-08-14T12:43:01.346Z,6.75
2022-08-14T12:45:40.673Z,8.40
2022-08-14T12:48:21.148Z,6.95
2022-08-14T12:51:05.714Z,9.52
2022-08-14T12:53:45.415Z,7.72
2022-08-14T12:56:33.974Z,6.85
2022-08-14T12:59:11.605Z,7.45
2022-08-14T13:01:59.159Z,7.25
2022-08-14T13:04:36.864Z,7.35
2022-08-14T13:07:08.982Z,6.78
2022-08-14T13:09:59.248Z,6.78
2022-08-14T13:13:15.485Z,7.07
2022-08-14T13:18:57.346Z,7.15
2022-08-14T13:21:58.971Z,7.00
2022-08-14T13:24:27.653Z,6.55
2022-08-14T13:27:05.751Z,7.18
2022-08-14T13:29:46.517Z,6.40
2022-08-14T13:32:14.857Z,6.63
2022-08-14T13:34:46.009Z,7.03
2022-08-14T13:37:15.258Z,7.82
2022-08-14T13:39:56.699Z,7.10
2022-08-14T13:42:30.858Z,7.40
2022-08-14T13:45:00.198Z,7.63
2022-08-14T13:47:30.386Z,8.40
2022-08-14T13:50:02.835Z,6.85
2022-08-14T13:52:52.830Z,8.75
2022-08-14T13:55:28.010Z,7.30
2022-08-14T13:58:04.479Z,9.40
2022-08-14T14:00:53.414Z,7.35
2022-08-14T14:03:24.629Z,8.05
2022-08-14T14:05:54.918Z,6.50
2022-08-14T14:08:43.663Z,7.07
2022-08-14T14:11:15.684Z,7.13
2022-08-14T14:13:44.856Z,7.72
2022-08-14T14:16:21.791Z,9.38
2022-08-14T14:19:06.916Z,7.10
2022-08-14T14:21:37.829Z,7.95
2022-08-14T14:24:06.308Z,7.93
2022-08-14T14:26:35.884Z,8.38
2022-08-14T14:29:04.640Z,7.72
2022-08-14T14:31:32.500Z,8.05
2022-08-14T14:34:01.169Z,7.93
2022-08-14T14:36:35.589Z,7.63
2022-08-14T14:39:07.602Z,7.78
2022-08-14T14:41:44.143Z,7.78
2022-08-14T14:44:15.706Z,12.75
2022-08-14T14:46:50.050Z,7.45
2022-08-14T14:49:21.769Z,7.72
2022-08-14T14:51:51.517Z,7.18
2022-08-14T14:54:31.520Z,7.32
2022-08-14T14:57:02.325Z,6.60
2022-08-14T14:59:31.030Z,9.38
2022-08-14T15:02:05.556Z,7.20
2022-08-14T15:04:37.547Z,15.60
2022-08-14T15:07:05.689Z,6.30
2022-08-14T15:09:34.604Z,6.88
2022-08-14T15:12:16.282Z,6.90
2022-08-14T15:14:57.261Z,6.93
2022-08-14T15:17:28.565Z,6.43
2022-08-14T15:20:04.297Z,7.13
2022-08-14T15:22:34.543Z,6.40
2022-08-14T15:25:02.264Z,7.03
2022-08-14T15:27:30.450Z,7.20
2022-08-14T15:29:59.986Z,7.40
2022-08-14T15:32:27.410Z,6.15
2022-08-14T15:34:58.251Z,6.60
2022-08-14T15:37:26.195Z,7.03
2022-08-14T15:40:03.409Z,6.63
2022-08-14T15:42:38.431Z,9.48
2022-08-14T15:45:12.877Z,9.60
2022-08-14T15:47:42.943Z,6.22
2022-08-14T15:50:16.189Z,6.43
2022-08-14T15:52:47.538Z,7.93
2022-08-14T15:55:16.269Z,6.60
2022-08-14T15:58:02.185Z,6.70
2022-08-14T16:00:57.513Z,6.60
2022-08-14T16:03:37.183Z,6.40
2022-08-14T16:06:11.130Z,6.28
2022-08-14T16:08:57.641Z,6.57
2022-08-14T16:11:28.823Z,6.50
2022-08-14T16:14:01.816Z,6.72
2022-08-14T16:16:47.322Z,6.35
2022-08-14T16:19:19.114Z,6.43
2022-08-14T16:22:01.888Z,6.47
2022-08-14T16:25:00.012Z,6.10
2022-08-14T16:27:39.359Z,10.82
2022-08-14T16:30:24.561Z,6.20
2022-08-14T16:33:05.530Z,5.60
2022-08-14T16:35:43.004Z,6.88
2022-08-14T16:38:44.939Z,6.10
2022-08-14T16:41:23.030Z,7.72
2022-08-14T16:43:51.394Z,19.45
2022-08-14T16:46:22.445Z,5.65
2022-08-14T16:48:58.453Z,5.10
2022-08-14T16:51:28.009Z,6.20
2022-08-14T16:53:55.662Z,6.18
2022-08-14T16:56:25.470Z,12.98
2022-08-14T16:59:13.271Z,6.00
2022-08-14T17:01:42.788Z,7.63
2022-08-14T17:04:24.387Z,7.03
2022-08-14T17:06:53.831Z,6.40
2022-08-14T17:09:25.026Z,6.00
2022-08-14T17:11:56.423Z,6.22
2022-08-14T17:14:25.221Z,6.35
2022-08-14T17:16:58.132Z,6.65
2022-08-14T17:19:25.916Z,6.18
2022-08-14T17:21:58.905Z,6.95
2022-08-14T17:24:55.994Z,6.85
2022-08-14T17:27:23.084Z,7.10
2022-08-14T17:29:57.562Z,6.72
2022-08-14T17:35:16.478Z,11.90
2022-08-14T17:37:46.329Z,7.82
2022-08-14T17:40:19.100Z,15.00
2022-08-14T17:42:51.502Z,7.75
2022-08-14T17:47:54.597Z,6.72
2022-08-14T17:50:59.607Z,8.00
2022-08-14T17:53:30.369Z,6.53
2022-08-14T17:56:01.755Z,7.03
2022-08-14T17:58:38.733Z,7.53
2022-08-14T18:01:13.763Z,6.28
2022-08-14T18:03:50.019Z,6.88
2022-08-14T18:06:38.625Z,6.75
2022-08-14T18:09:24.731Z,6.32
2022-08-14T18:11:54.380Z,6.13
2022-08-14T18:14:31.959Z,5.95
2022-08-14T18:17:02.213Z,6.30
2022-08-14T18:19:31.443Z,8.98
2022-08-14T18:22:23.921Z,6.82
2022-08-14T18:24:53.540Z,6.47
2022-08-14T18:27:23.646Z,6.55
2022-08-14T18:29:53.330Z,6.35
2022-08-14T18:32:32.390Z,6.32
2022-08-14T18:35:11.437Z,6.60
2022-08-14T18:37:41.272Z,6.65
2022-08-14T18:40:18.422Z,6.65
2022-08-14T18:43:01.816Z,7.00
2022-08-14T18:45:42.985Z,6.68
2022-08-14T18:48:28.428Z,6.43
2022-08-14T18:51:04.892Z,6.63
2022-08-14T18:53:51.213Z,7.50
2022-08-14T18:56:20.274Z,7.38
2022-08-14T18:58:58.536Z,6.75
2022-08-14T19:01:31.668Z,7.05
2022-08-14T19:04:04.069Z,7.13
2022-08-14T19:06:37.462Z,6.97
2022-08-14T19:09:05.961Z,6.80
2022-08-14T19:11:39.519Z,6.32
2022-08-14T19:14:09.039Z,6.70
2022-08-14T19:16:38.596Z,8.02
2022-08-14T19:19:11.786Z,7.78
2022-08-14T19:21:44.795Z,8.25
2022-08-14T19:24:29.198Z,7.63
2022-08-14T19:29:38.379Z,7.47
2022-08-14T19:32:28.891Z,7.43
2022-08-14T19:35:02.253Z,8.05
2022-08-14T19:37:52.068Z,8.23
2022-08-14T19:40:33.248Z,8.32
2022-08-14T19:43:08.923Z,8.50
2022-08-14T19:45:37.351Z,8.60
2022-08-14T19:48:11.364Z,8.52
2022-08-14T19:50:44.372Z,8.00
2022-08-14T19:53:18.033Z,8.63
2022-08-14T19:55:57.433Z,8.20
2022-08-14T19:58:54.189Z,8.35
2022-08-14T20:01:25.989Z,8.30
2022-08-14T20:04:00.258Z,9.50
2022-08-14T20:06:37.279Z,8.95
2022-08-14T20:11:06.623Z,8.87
2022-08-14T20:12:05.152Z,10.52
2022-08-14T20:14:51.898Z,8.52
2022-08-14T20:17:21.285Z,9.73
2022-08-14T20:19:50.156Z,8.25
2022-08-14T20:22:37.237Z,9.25
2022-08-14T20:25:18.411Z,9.32
2022-08-14T20:27:59.239Z,8.43
2022-08-14T20:30:34.701Z,9.15
2022-08-14T20:33:11.235Z,9.40
2022-08-14T20:35:49.376Z,9.48
2022-08-14T20:38:30.365Z,9.38
2022-08-14T20:41:06.483Z,11.00
2022-08-14T20:43:54.619Z,9.70
2022-08-14T20:46:29.631Z,10.25
2022-08-14T20:49:10.943Z,8.93
2022-08-14T20:51:47.426Z,9.75
2022-08-14T20:54:34.442Z,9.82
2022-08-14T20:57:17.675Z,9.68
2022-08-14T20:59:48.890Z,9.32
2022-08-14T21:02:29.548Z,9.80
2022-08-14T21:05:02.977Z,9.70
2022-08-14T21:07:36.637Z,10.27
2022-08-14T21:10:35.735Z,9.77
2022-08-14T21:13:26.125Z,9.98
2022-08-14T21:15:56.728Z,9.95
2022-08-14T21:18:30.611Z,9.73
2022-08-14T21:21:00.025Z,10.05
2022-08-14T21:23:32.775Z,9.63
2022-08-14T21:26:05.425Z,9.23
2022-08-14T21:28:34.980Z,9.13
2022-08-14T21:31:03.209Z,10.18
2022-08-14T21:33:30.576Z,9.95
2022-08-14T21:36:00.214Z,9.82
2022-08-14T21:38:37.988Z,10.63
2022-08-14T21:41:41.813Z,10.55
2022-08-14T21:44:17.078Z,10.50
2022-08-14T21:46:47.204Z,10.90
2022-08-14T21:49:16.598Z,11.50
2022-08-14T21:51:55.484Z,10.30
2022-08-14T21:54:32.299Z,10.55
2022-08-14T21:57:15.913Z,10.35
2022-08-14T21:59:43.819Z,10.65
2022-08-14T22:02:32.862Z,10.38
2022-08-14T22:05:00.740Z,10.32
2022-08-14T22:07:32.716Z,10.25
2022-08-14T22:10:02.460Z,10.70
2022-08-14T22:12:45.485Z,10.75
2022-08-14T22:15:22.358Z,10.23
2022-08-14T22:17:54.242Z,10.93
2022-08-14T22:20:24.067Z,10.45
2022-08-14T22:22:56.038Z,11.13
2022-08-14T22:25:33.330Z,12.50
2022-08-14T22:28:02.294Z,10.50
2022-08-14T22:30:29.894Z,10.90
2022-08-14T22:32:59.893Z,11.63
2022-08-14T22:35:28.354Z,11.23
2022-08-14T22:38:35.062Z,11.50
2022-08-14T22:40:58.631Z,9.82
2022-08-14T22:43:35.253Z,11.15
2022-08-14T22:46:14.453Z,11.15
2022-08-14T22:48:44.461Z,10.90
2022-08-14T22:51:13.400Z,10.25
2022-08-14T22:53:42.930Z,10.60
2022-08-14T22:56:20.938Z,10.32
2022-08-14T22:58:54.241Z,11.40
2022-08-14T23:01:55.491Z,11.32
2022-08-14T23:04:35.948Z,11.02
2022-08-14T23:07:21.698Z,11.00
2022-08-14T23:10:00.760Z,10.43
2022-08-14T23:12:54.738Z,11.57
2022-08-14T23:15:23.121Z,11.10
2022-08-14T23:17:50.553Z,11.55
2022-08-14T23:20:22.643Z,11.35
2022-08-14T23:22:52.433Z,10.95
2022-08-14T23:25:57.313Z,10.85
2022-08-14T23:28:33.802Z,12.65
2022-08-14T23:30:56.429Z,11.77
2022-08-14T23:33:27.684Z,11.15
2022-08-14T23:35:58.820Z,11.07
2022-08-14T23:38:30.955Z,10.63
2022-08-14T23:40:59.023Z,11.43
2022-08-14T23:43:31.006Z,10.95
2022-08-14T23:45:59.249Z,10.55
2022-08-14T23:48:28.441Z,13.55
2022-08-14T23:50:56.532Z,10.52
2022-08-14T23:53:47.322Z,12.13
2022-08-14T23:56:31.740Z,10.88
2022-08-14T23:59:01.194Z,11.90
